NEODyS-2

Near Earth Objects - Dynamic Site
NEODyS ∴ Observatories ∴ Site 691 ∴ Obs & residuals
Contact »
691  ▹ 
OBSERVATIONS AND RESIDUALS

691-Steward Observatory, Kitt Peak-Spacewatch

Detections | Residuals | Detections & Residuals

[1-200] [201-400] [401-600] [601-800] [801-1000] [1001-1200] [1201-1400] [1401-1600] [1601-1800] [1801-2000] [2001-2200] [2201-2400] [2401-2600] [2601-2800] [2801-3000] [3001-3200] [3201-3400] [3401-3600] [3601-3800] [3801-4000] [4001-4200] [4201-4400] [4401-4600] [4601-4800] [4801-5000] [5001-5200] [5201-5400] [5401-5600] [5601-5800] [5801-6000] [6001-6200] [6201-6400] [6401-6600] [6601-6800] [6801-7000] [7001-7200] [7201-7400] [7401-7600] [7601-7800] [7801-8000] [8001-8200] [8201-8400] [8401-8600] [8601-8800] [8801-9000] [9001-9200] [9201-9400] [9401-9600] [9601-9800] [9801-10000] [10001-10200] [10201-10400] [10401-10600] [10601-10800] [10801-11000] [11001-11200] [11201-11400] [11401-11600] [11601-11800] [11801-12000] [12001-12200] [12201-12400] [12401-12600] [12601-12800] [12801-13000] [13001-13200] [13201-13400] [13401-13600] [13601-13800] [13801-14000] [14001-14200] [14201-14400] [14401-14600] [14601-14800] [14801-15000] [15001-15200] [15201-15400] [15401-15600] [15601-15800] [15801-16000] [16001-16200] [16201-16400] [16401-16600] [16601-16800] [16801-17000] [17001-17200] [17201-17400] [17401-17600] [17601-17800] [17801-18000] [18001-18200] [18201-18400] [18401-18600] [18601-18800] [18801-19000] [19001-19200] [19201-19400] [19401-19600] [19601-19800] [19801-20000] [20001-20200] [20201-20400] [20401-20600] [20601-20800] [20801-21000] [21001-21200] [21201-21400] [21401-21600] [21601-21800] [21801-22000] [22001-22200] [22201-22400] [22401-22600] [22601-22800] [22801-23000] [23001-23200] [23201-23400] [23401-23600] [23601-23800] [23801-24000] [24001-24200] [24201-24400] [24401-24600] [24601-24800] [24801-25000] [25001-25200] [25201-25400] [25401-25600] [25601-25800] [25801-26000] [26001-26200] [26201-26400] [26401-26600] [26601-26800] [26801-27000] [27001-27200] [27201-27400] [27401-27600] [27601-27800] [27801-28000] [28001-28200] [28201-28400] [28401-28600] [28601-28800] [28801-29000] [29001-29200] [29201-29400] [29401-29600] [29601-29800] [29801-30000] [30001-30200] [30201-30400] [30401-30600] [30601-30800] [30801-31000] [31001-31200] [31201-31400] [31401-31600] [31601-31800] [31801-32000] [32001-32200] [32201-32400] [32401-32600] [32601-32800] [32801-33000] [33001-33200] [33201-33400] [33401-33600] [33601-33800] [33801-34000] [34001-34200] [34201-34400] [34401-34600] [34601-34800] [34801-35000] [35001-35200] [35201-35400] [35401-35600] [35601-35800] [35801-36000] [36001-36200] [36201-36400] [36401-36600] [36601-36800] [36801-37000] [37001-37200] [37201-37400] [37401-37600] [37601-37800] [37801-38000] [38001-38200] [38201-38400] [38401-38600] [38601-38800] [38801-39000] [39001-39200] [39201-39400] [39401-39600] [39601-39800] [39801-40000] [40001-40200] [40201-40400] [40401-40600] [40601-40800] [40801-41000] [41001-41200] [41201-41400] [41401-41600] [41601-41800] [41801-42000] [42001-42200] [42201-42400] [42401-42600] [42601-42800] [42801-43000] [43001-43200] [43201-43400] [43401-43600] [43601-43800] [43801-44000] [44001-44200] [44201-44400] [44401-44600] [44601-44800] [44801-45000] [45001-45200] [45201-45400] [45401-45600] [45601-45800] [45801-46000] [46001-46200] [46201-46400] [46401-46600] [46601-46800] [46801-47000] [47001-47200] [47201-47400] [47401-47600] [47601-47800] [47801-48000] [48001-48200] [48201-48400] [48401-48600] [48601-48800] [48801-49000] [49001-49200] [49201-49400] [49401-49600] [49601-49800] [49801-50000] [50001-50200] [50201-50388]

Designation T Tech N Date Right Ascension Declination Apparent Magnitude Star Catalog Site code χ Used A Used M
yr-mo-day precision hr:min:sec precision rms F bias residual deg min sec precision rms F bias residual mag/col rms residual
2006SR19 O C 2006-09-19.39193 1.000E-05 01:45:21.050 1.500E-01 0.500 F 0.096 0.224 +13° 40' 36.00" 1.000E-01 0.500 F 0.419 -0.132 20.8 V 0.70 -0.34 c 691 0.53 Yes Yes
2001SO73 O C 2006-09-19.39695 1.000E-05 01:44:20.550 1.500E-01 0.500 F -0.064 0.040 +11° 07' 11.50" 1.000E-01 0.500 F 0.243 0.115 21.0 V 0.70 -0.58 c 691 0.24 Yes Yes
Tomaiyowit O C 2006-09-19.47748 1.000E-05 07:08:22.440 1.500E-01 0.500 F 0.287 -0.194 +24° 01' 20.10" 1.000E-01 0.500 F 0.246 -0.013 20.5 V 0.70 0.01 c 691 0.39 Yes Yes
Tomaiyowit O C 2006-09-19.48996 1.000E-05 07:08:25.950 1.500E-01 0.500 F 0.287 -0.302 +24° 01' 07.00" 1.000E-01 0.500 F 0.246 -0.314 20.5 V 0.70 0.01 c 691 0.87 Yes Yes
Tomaiyowit O C 2006-09-19.50243 1.000E-05 07:08:29.480 1.500E-01 0.500 F 0.287 -0.066 +24° 00' 54.20" 1.000E-01 0.500 F 0.246 -0.303 20.7 V 0.70 0.21 c 691 0.62 Yes Yes
2006SU49 O C 2006-09-20.16543 1.000E-05 23:31:10.990 1.500E-01 0.500 F -0.090 -0.026 +02° 06' 19.00" 1.000E-01 0.500 F 0.433 -0.317 20.2 V 0.70 -0.08 c 691 0.64 Yes Yes
2003SY17 O C H 2006-09-20.17052 1.000E-05 23:35:41.150 1.500E-01 0.500 F -0.015 -0.220 +03° 52' 03.00" 1.000E-01 0.500 F 0.379 -0.130 21.5 V 0.70 -0.32 c 691 0.52 Yes Yes
2006SU49 O C 2006-09-20.18290 1.000E-05 23:31:09.070 1.500E-01 0.500 F -0.090 -0.114 +02° 06' 09.20" 1.000E-01 0.500 F 0.433 -0.116 20.2 V 0.70 -0.08 c 691 0.33 Yes Yes
2003SY17 O C H 2006-09-20.18793 1.000E-05 23:35:39.480 1.500E-01 0.500 F -0.015 -0.396 +03° 52' 01.20" 1.000E-01 0.500 F 0.379 -0.246 21.7 V 0.70 -0.12 c 691 0.95 Yes Yes
2006SU49 O C 2006-09-20.20031 1.000E-05 23:31:07.150 1.500E-01 0.500 F -0.090 -0.218 +02° 05' 59.00" 1.000E-01 0.500 F 0.433 -0.345 20.5 V 0.70 0.22 c 691 0.82 Yes Yes
Ptah O C 2006-09-20.22079 1.000E-05 00:35:37.630 1.500E-01 0.500 F -0.092 0.144 -00° 00' 13.20" 1.000E-01 0.500 F 0.284 -0.083 c 691 0.33 Yes No
Ptah O C 2006-09-20.23813 1.000E-05 00:35:35.820 1.500E-01 0.500 F -0.092 0.261 -00° 00' 16.30" 1.000E-01 0.500 F 0.284 -0.077 c 691 0.54 Yes No
Ptah O C 2006-09-20.25556 1.000E-05 00:35:33.950 1.500E-01 0.500 F -0.092 -0.269 -00° 00' 19.50" 1.000E-01 0.500 F 0.284 -0.152 c 691 0.62 Yes No
2002FD O C 2006-09-22.11634 1.000E-05 22:05:09.810 1.500E-01 0.500 F 0.029 0.066 +03° 49' 16.30" 1.000E-01 0.500 F 0.529 -0.224 19.2 V 0.70 0.08 c 691 0.47 Yes Yes
2002FD O C 2006-09-22.12925 1.000E-05 22:05:08.960 1.500E-01 0.500 F 0.029 0.006 +03° 48' 31.70" 1.000E-01 0.500 F 0.529 -0.260 19.2 V 0.70 0.08 c 691 0.53 Yes Yes
2002FD O C 2006-09-22.14216 1.000E-05 22:05:08.120 1.500E-01 0.500 F 0.029 0.163 +03° 47' 46.90" 1.000E-01 0.500 F 0.529 -0.484 19.2 V 0.70 0.08 c 691 1.03 Yes Yes
2006OB5 O C 2006-09-23.16364 1.000E-05 23:36:08.640 1.500E-01 0.500 F -0.169 -0.050 -02° 22' 19.50" 1.000E-01 0.500 F 0.637 -0.234 17.9 V 0.70 0.45 c 691 0.48 Yes Yes
2006OB5 O C 2006-09-23.18098 1.000E-05 23:36:08.640 1.500E-01 0.500 F -0.169 -0.072 -02° 22' 14.00" 1.000E-01 0.500 F 0.637 -0.178 17.9 V 0.70 0.45 c 691 0.38 Yes Yes
2006OB5 O C 2006-09-23.19833 1.000E-05 23:36:08.620 1.500E-01 0.500 F -0.169 -0.113 -02° 22' 08.50" 1.000E-01 0.500 F 0.637 -0.139 17.8 V 0.70 0.35 c 691 0.36 Yes Yes
2006SG7 O C 2006-09-23.21282 1.000E-05 00:28:10.190 1.500E-01 0.500 F -0.148 -0.185 +02° 14' 49.20" 1.000E-01 0.500 F 0.451 -0.304 20.1 V 0.70 0.17 c 691 0.73 Yes Yes
2006BC10 O C 2006-09-23.22278 1.000E-05 00:22:20.770 1.500E-01 0.500 F -0.276 0.202 +01° 09' 11.30" 1.000E-01 0.500 F 0.465 -0.332 18.9 V 0.70 0.45 c 691 0.78 Yes Yes
2006SG7 O C 2006-09-23.23019 1.000E-05 00:28:04.550 1.500E-01 0.500 F -0.148 -0.051 +02° 14' 34.90" 1.000E-01 0.500 F 0.451 -0.532 20.1 V 0.70 0.17 c 691 1.08 Yes Yes
2006BC10 O C 2006-09-23.24015 1.000E-05 00:22:17.930 1.500E-01 0.500 F -0.276 0.041 +01° 08' 57.40" 1.000E-01 0.500 F 0.465 -0.106 18.9 V 0.70 0.45 c 691 0.23 Yes Yes
2006SG7 O C 2006-09-23.24756 1.000E-05 00:27:58.900 1.500E-01 0.500 F -0.148 0.370 +02° 14' 21.30" 1.000E-01 0.500 F 0.451 -0.015 20.1 V 0.70 0.18 c 691 0.76 Yes Yes
2006BC10 O C 2006-09-23.25752 1.000E-05 00:22:15.090 1.500E-01 0.500 F -0.239 -0.080 +01° 08' 43.30" 1.000E-01 0.500 F 0.489 -0.110 18.8 V 0.70 0.35 c 691 0.28 Yes Yes
2001SO73 O C H 2006-09-25.35854 1.000E-05 01:37:04.420 1.500E-01 0.500 F 0.044 -0.033 +10° 15' 43.60" 1.000E-01 0.500 F 0.306 0.106 21.3 V 0.70 -0.17 c 691 0.22 Yes Yes
2001SO73 O C H 2006-09-25.37592 1.000E-05 01:37:03.070 1.500E-01 0.500 F 0.044 0.284 +10° 15' 33.60" 1.000E-01 0.500 F 0.306 -0.447 21.1 V 0.70 -0.37 c 691 1.06 Yes Yes
2001SO73 O C H 2006-09-25.39329 1.000E-05 01:37:01.730 1.500E-01 0.500 F 0.044 0.737 +10° 15' 25.00" 1.000E-01 0.500 F 0.306 0.407 21.2 V 0.70 -0.27 c 691 1.69 Yes Yes
2006SR78 O C 2006-09-25.42284 1.000E-05 02:16:23.650 1.500E-01 0.500 F -0.242 0.198 +14° 49' 14.10" 1.000E-01 0.500 F 0.285 -0.129 21.1 V 0.70 -0.06 c 691 0.49 Yes Yes
2006SR19 O C 2006-09-25.42783 1.000E-05 01:58:34.550 1.500E-01 0.500 F 0.001 -0.103 +16° 10' 29.80" 1.000E-01 0.500 F 0.662 0.170 20.6 V 0.70 -0.36 c 691 0.40 Yes Yes
2006SR78 O C 2006-09-25.44019 1.000E-05 02:16:20.850 1.500E-01 0.500 F -0.242 0.256 +14° 49' 30.20" 1.000E-01 0.500 F 0.285 -0.085 21.1 V 0.70 -0.06 c 691 0.57 Yes Yes
2006SR19 O C 2006-09-25.44519 1.000E-05 01:58:36.650 1.500E-01 0.500 F 0.001 0.221 +16° 10' 55.10" 1.000E-01 0.500 F 0.662 -0.065 20.5 V 0.70 -0.46 c 691 0.47 Yes Yes
2006SR78 O C 2006-09-25.45756 1.000E-05 02:16:18.040 1.500E-01 0.500 F -0.242 0.180 +14° 49' 46.10" 1.000E-01 0.500 F 0.285 -0.213 21.0 V 0.70 -0.16 c 691 0.58 Yes Yes
2006SR19 O C 2006-09-25.46249 1.000E-05 01:58:38.750 1.500E-01 0.500 F 0.001 0.533 +16° 11' 20.80" 1.000E-01 0.500 F 0.662 0.268 20.6 V 0.70 -0.36 c 691 1.21 Yes Yes
Jason O C H 2006-09-26.17400 1.000E-05 23:22:54.270 1.500E-01 0.500 F -0.173 0.102 -04° 37' 08.80" 1.000E-01 0.500 F 0.633 -0.250 21.0 V 0.70 1.01 c 691 0.54 Yes Yes
Jason O C 2006-09-26.19135 1.000E-05 23:22:52.900 1.500E-01 0.500 F -0.173 -0.289 -04° 37' 18.20" 1.000E-01 0.500 F 0.633 -0.223 20.6 V 0.70 0.61 c 691 0.73 Yes Yes
2002XR14 O C H 2006-09-26.20377 1.000E-05 23:38:44.190 1.500E-01 0.500 F -0.204 -1.595 -05° 48' 54.40" 1.000E-01 0.500 F 0.575 -3.026 21.3 V 0.70 -0.55 c 691 6.79 No Yes
Jason O C H 2006-09-26.20875 1.000E-05 23:22:51.610 1.500E-01 0.500 F -0.173 0.596 -04° 37' 28.20" 1.000E-01 0.500 F 0.633 -0.773 20.4 V 0.70 0.41 c 691 1.95 Yes Yes
2006SP134 O C 2006-09-26.27825 1.000E-05 00:44:19.570 1.500E-01 0.500 F -0.079 0.174 +01° 34' 03.90" 1.000E-01 0.500 F 0.310 -0.170 20.9 V 0.70 -0.18 c 691 0.49 Yes Yes
2006SP134 O C 2006-09-26.28819 1.000E-05 00:44:18.770 1.500E-01 0.500 F -0.079 0.010 +01° 34' 00.30" 1.000E-01 0.500 F 0.310 -0.200 21.0 V 0.70 -0.08 c 691 0.40 Yes Yes
2006SP134 O C 2006-09-26.29812 1.000E-05 00:44:17.980 1.500E-01 0.500 F -0.079 -0.012 +01° 33' 56.70" 1.000E-01 0.500 F 0.310 -0.234 21.2 V 0.70 0.12 c 691 0.47 Yes Yes
2006SP198 O C 2006-09-26.30531 1.000E-05 01:00:15.190 1.500E-01 0.500 F -0.108 0.138 +08° 36' 36.40" 1.000E-01 0.500 F 0.425 -0.583 21.7 V 0.70 0.22 c 691 1.22 Yes Yes
2006SQ131 O C 2006-09-26.31273 1.000E-05 01:22:11.590 1.500E-01 0.500 F -0.079 0.188 +06° 59' 50.60" 1.000E-01 0.500 F 0.376 -0.262 20.3 V 0.70 -0.11 c 691 0.67 Yes Yes
2006SP198 O C 2006-09-26.32270 1.000E-05 01:00:15.650 1.500E-01 0.500 F -0.108 -0.297 +08° 36' 25.00" 1.000E-01 0.500 F 0.425 -0.315 21.4 V 0.70 -0.07 c 691 0.88 Yes Yes
2006SQ131 O C 2006-09-26.33011 1.000E-05 01:22:13.140 1.500E-01 0.500 F -0.079 0.216 +06° 58' 49.40" 1.000E-01 0.500 F 0.376 -0.367 20.5 V 0.70 0.09 c 691 0.89 Yes Yes
2006SP198 O C 2006-09-26.34014 1.000E-05 01:00:16.200 1.500E-01 0.500 F -0.108 0.603 +08° 36' 12.80" 1.000E-01 0.500 F 0.425 -0.776 22.0 V 0.70 0.53 c 691 2.01 Yes Yes
2006SQ131 O C 2006-09-26.34755 1.000E-05 01:22:14.700 1.500E-01 0.500 F -0.079 0.389 +06° 57' 48.10" 1.000E-01 0.500 F 0.376 -0.311 20.2 V 0.70 -0.21 c 691 1.04 Yes Yes
Seleucus O C 2006-09-26.36392 1.000E-05 01:35:32.000 1.500E-01 0.500 F -0.008 -0.025 +13° 08' 52.90" 1.000E-01 0.500 F 0.311 -0.134 19.8 V 0.70 0.15 c 691 0.27 Yes Yes
2003HM16 O C 2006-09-26.37148 1.000E-05 01:32:35.050 1.500E-01 0.500 F -0.043 0.145 +11° 01' 11.80" 1.000E-01 0.500 F 0.333 -0.035 18.9 V 0.70 0.36 c 691 0.30 Yes Yes
Seleucus O C 2006-09-26.38145 1.000E-05 01:35:31.000 1.500E-01 0.500 F -0.008 0.085 +13° 08' 46.50" 1.000E-01 0.500 F 0.311 -0.062 19.8 V 0.70 0.15 c 691 0.21 Yes Yes
2003HM16 O C 2006-09-26.38893 1.000E-05 01:32:33.510 1.500E-01 0.500 F -0.043 0.021 +11° 00' 45.60" 1.000E-01 0.500 F 0.333 -0.074 18.9 V 0.70 0.36 c 691 0.15 Yes Yes
Seleucus O C 2006-09-26.39891 1.000E-05 01:35:30.000 1.500E-01 0.500 F -0.008 0.135 +13° 08' 40.10" 1.000E-01 0.500 F 0.311 -0.003 19.8 V 0.70 0.15 c 691 0.27 Yes Yes
2003HM16 O C 2006-09-26.40638 1.000E-05 01:32:31.980 1.500E-01 0.500 F -0.043 0.035 +11° 00' 19.50" 1.000E-01 0.500 F 0.333 0.003 18.8 V 0.70 0.26 c 691 0.07 Yes Yes
2006ST131 O C 2006-09-26.41643 1.000E-05 01:55:18.720 1.500E-01 0.500 F 0.041 0.117 +20° 37' 27.90" 1.000E-01 0.500 F 0.170 -0.224 21.0 V 0.70 -0.05 c 691 0.51 Yes Yes
1998FF2 O C 2006-09-26.42633 1.000E-05 02:12:27.840 1.500E-01 0.500 F -0.007 0.515 +19° 05' 40.20" 1.000E-01 0.500 F 0.485 -0.201 19.8 V 0.70 0.02 c 691 1.11 Yes Yes
2006ST131 O C 2006-09-26.43386 1.000E-05 01:55:19.280 1.500E-01 0.500 F 0.041 -0.295 +20° 36' 15.70" 1.000E-01 0.500 F 0.170 -0.190 21.0 V 0.70 -0.04 c 691 0.71 Yes Yes
1998FF2 O C 2006-09-26.44376 1.000E-05 02:12:25.940 1.500E-01 0.500 F -0.007 0.065 +19° 05' 47.70" 1.000E-01 0.500 F 0.485 -0.125 20.0 V 0.70 0.22 c 691 0.28 Yes Yes
2006ST131 O C 2006-09-26.45128 1.000E-05 01:55:19.860 1.500E-01 0.500 F 0.041 -0.502 +20° 35' 03.70" 1.000E-01 0.500 F 0.170 0.155 21.0 V 0.70 -0.04 c 691 1.07 Yes Yes
1998FF2 O C 2006-09-26.46118 1.000E-05 02:12:24.080 1.500E-01 0.500 F -0.007 0.130 +19° 05' 55.00" 1.000E-01 0.500 F 0.485 -0.194 20.0 V 0.70 0.22 c 691 0.47 Yes Yes
2006SU19 O C H 2006-09-27.22218 1.000E-05 00:34:53.190 1.500E-01 0.500 F -0.062 -0.258 +01° 24' 28.00" 1.000E-01 0.500 F 0.409 -0.833 21.4 V 0.70 0.24 c 691 1.75 Yes Yes
2006SU19 O C H 2006-09-27.23962 1.000E-05 00:34:51.470 1.500E-01 0.500 F -0.062 -0.241 +01° 24' 15.60" 1.000E-01 0.500 F 0.409 -1.313 21.1 V 0.70 -0.06 c 691 2.68 Yes Yes
2006SU19 O C H 2006-09-27.25700 1.000E-05 00:34:49.750 1.500E-01 0.500 F -0.062 -0.271 +01° 24' 04.70" 1.000E-01 0.500 F 0.409 -0.331 21.5 V 0.70 0.34 c 691 0.86 Yes Yes
1999CF9 O C 2006-09-27.27334 1.000E-05 00:54:12.570 1.500E-01 0.500 F -0.118 0.187 -01° 57' 13.20" 1.000E-01 0.500 F 0.433 -0.474 18.9 V 0.70 0.37 c 691 1.02 Yes Yes
1999CF9 O C 2006-09-27.28322 1.000E-05 00:54:11.230 1.500E-01 0.500 F -0.198 -0.067 -01° 57' 22.80" 1.000E-01 0.500 F 0.366 -0.358 19.0 V 0.70 0.47 c 691 0.73 Yes Yes
1999CF9 O C 2006-09-27.29316 1.000E-05 00:54:09.910 1.500E-01 0.500 F -0.198 0.031 -01° 57' 32.40" 1.000E-01 0.500 F 0.366 -0.255 19.0 V 0.70 0.47 c 691 0.52 Yes Yes
2006SQ131 O C 2006-09-27.35820 1.000E-05 01:23:57.420 1.500E-01 0.500 F -0.139 0.213 +05° 58' 34.30" 1.000E-01 0.500 F 0.241 -0.173 20.5 V 0.70 0.10 c 691 0.56 Yes Yes
2006SR134 O C 2006-09-27.36811 1.000E-05 01:33:45.890 1.500E-01 0.500 F -0.039 0.304 +03° 39' 49.00" 1.000E-01 0.500 F 0.207 0.019 20.7 V 0.70 -0.29 c 691 0.63 Yes Yes
2006SQ131 O C 2006-09-27.37558 1.000E-05 01:23:58.890 1.500E-01 0.500 F -0.139 0.012 +05° 57' 33.30" 1.000E-01 0.500 F 0.241 -0.119 20.4 V 0.70 0.00 c 691 0.25 Yes Yes
2006SR134 O C 2006-09-27.38550 1.000E-05 01:33:44.130 1.500E-01 0.500 F -0.039 0.091 +03° 39' 54.30" 1.000E-01 0.500 F 0.207 -0.166 20.7 V 0.70 -0.29 c 691 0.39 Yes Yes
2006SQ131 O C 2006-09-27.39304 1.000E-05 01:24:00.380 1.500E-01 0.500 F -0.139 -0.040 +05° 56' 32.10" 1.000E-01 0.500 F 0.241 0.055 20.4 V 0.70 0.00 c 691 0.14 Yes Yes
2006SR134 O C 2006-09-27.40294 1.000E-05 01:33:42.380 1.500E-01 0.500 F -0.039 0.022 +03° 39' 59.70" 1.000E-01 0.500 F 0.207 -0.234 20.6 V 0.70 -0.39 c 691 0.49 Yes Yes
2006SW5 O C H 2006-09-28.15055 1.000E-05 23:49:04.290 1.500E-01 0.500 F -0.138 0.421 +02° 55' 53.70" 1.000E-01 0.500 F 0.583 -0.583 21.2 V 0.70 0.71 c 691 1.45 Yes Yes
2006BC10 O C 2006-09-28.15796 1.000E-05 00:10:53.310 1.500E-01 0.500 F 0.009 0.083 +00° 09' 36.10" 1.000E-01 0.500 F 0.473 -0.106 19.7 V 0.70 1.07 c 691 0.27 Yes Yes
2006SV189 O C 2006-09-28.16046 1.000E-05 00:05:36.690 1.500E-01 0.500 F -0.022 0.026 -00° 05' 32.20" 1.000E-01 0.500 F 0.404 -0.432 19.7 V 0.70 0.48 c 691 0.87 Yes Yes
2006SG7 O C t 2006-09-28.16296 1.000E-05 23:54:35.660 1.500E-01 0.500 F -0.092 0.534 +00° 45' 07.00" 1.000E-01 0.500 F 0.436 -0.525 19.3 V 0.70 0.07 c 691 1.52 Yes Yes
2006SW5 O C H 2006-09-28.16799 1.000E-05 23:49:02.470 1.500E-01 0.500 F -0.138 -0.608 +02° 55' 50.80" 1.000E-01 0.500 F 0.583 -0.278 21.2 V 0.70 0.71 c 691 1.35 Yes Yes
2006BC10 O C 2006-09-28.17540 1.000E-05 00:10:51.080 1.500E-01 0.500 F 0.009 0.133 +00° 09' 25.20" 1.000E-01 0.500 F 0.473 0.101 19.0 V 0.70 0.37 c 691 0.34 Yes Yes
2006SV189 O C 2006-09-28.17907 1.000E-05 00:05:34.350 1.500E-01 0.500 F -0.022 -0.544 -00° 05' 09.00" 1.000E-01 0.500 F 0.404 0.471 20.4 V 0.70 1.18 c 691 1.44 Yes Yes
2006SG7 O C t 2006-09-28.18157 1.000E-05 23:54:25.540 1.500E-01 0.500 F -0.092 0.283 +00° 44' 40.70" 1.000E-01 0.500 F 0.436 -0.503 19.1 V 0.70 -0.13 c 691 1.17 Yes Yes
2006SW5 O C H 2006-09-28.18660 1.000E-05 23:49:00.630 1.500E-01 0.500 F -0.138 -0.102 +02° 55' 47.00" 1.000E-01 0.500 F 0.583 -0.653 21.0 V 0.70 0.51 c 691 1.33 Yes Yes
2006BC10 O C 2006-09-28.19395 1.000E-05 00:10:48.690 1.500E-01 0.500 F 0.009 0.040 +00° 09' 13.20" 1.000E-01 0.500 F 0.473 -0.097 19.0 V 0.70 0.36 c 691 0.21 Yes Yes
2006SV189 O C 2006-09-28.19644 1.000E-05 00:05:32.220 1.500E-01 0.500 F -0.022 -0.127 -00° 04' 48.70" 1.000E-01 0.500 F 0.404 -0.047 19.8 V 0.70 0.58 c 691 0.27 Yes Yes
2006SG7 O C t 2006-09-28.19894 1.000E-05 23:54:16.070 1.500E-01 0.500 F -0.092 0.394 +00° 44' 15.60" 1.000E-01 0.500 F 0.436 -0.978 19.3 V 0.70 0.07 c 691 2.13 Yes Yes
2006SB142 O C 2006-09-28.20763 1.000E-05 00:25:04.140 1.500E-01 0.500 F -0.158 0.251 -00° 16' 53.30" 1.000E-01 0.500 F 0.338 0.664 20.0 V 0.70 -0.20 c 691 1.45 Yes Yes
Ptah O C 2006-09-28.20763 1.000E-05 00:20:07.020 1.500E-01 0.500 F -0.318 0.038 -00° 27' 03.70" 1.000E-01 0.500 F 0.505 -0.233 16.9 V 0.70 0.92 c 691 0.48 Yes Yes
2006SB142 O C 2006-09-28.23714 1.000E-05 00:25:03.300 1.500E-01 0.500 F -0.158 0.232 -00° 16' 06.40" 1.000E-01 0.500 F 0.338 0.044 20.1 V 0.70 -0.10 c 691 0.48 Yes Yes
Ptah O C 2006-09-28.23714 1.000E-05 00:20:02.960 1.500E-01 0.500 F -0.318 -0.071 -00° 27' 10.00" 1.000E-01 0.500 F 0.505 -0.110 16.8 V 0.70 0.82 c 691 0.27 Yes Yes
2006SB142 O C 2006-09-28.25456 1.000E-05 00:25:02.770 1.500E-01 0.500 F -0.158 -0.103 -00° 15' 38.50" 1.000E-01 0.500 F 0.338 -0.121 20.1 V 0.70 -0.10 c 691 0.32 Yes Yes
Ptah O C 2006-09-28.25456 1.000E-05 00:20:00.560 1.500E-01 0.500 F -0.318 -0.058 -00° 27' 13.90" 1.000E-01 0.500 F 0.505 -0.219 16.7 V 0.70 0.72 c 691 0.46 Yes Yes
2006SR131 O C 2006-09-28.27920 1.000E-05 00:41:02.610 1.500E-01 0.500 F -0.221 0.192 +04° 17' 49.40" 1.000E-01 0.500 F 0.364 0.236 20.0 V 0.70 -0.03 c 691 0.63 Yes Yes
2006SR131 O C 2006-09-28.28922 1.000E-05 00:41:06.230 1.500E-01 0.500 F -0.221 -0.223 +04° 18' 00.90" 1.000E-01 0.500 F 0.364 -0.060 19.8 V 0.70 -0.23 c 691 0.49 Yes Yes
2006SR131 O C 2006-09-28.29918 1.000E-05 00:41:09.820 1.500E-01 0.500 F -0.221 -0.224 +04° 18' 12.60" 1.000E-01 0.500 F 0.364 0.080 20.0 V 0.70 -0.04 c 691 0.51 Yes Yes
2006UQ17 O C 2006-09-28.31361 1.000E-05 01:29:17.720 1.500E-01 0.500 F -0.208 -0.364 +02° 09' 43.50" 1.000E-01 0.500 F 0.515 -0.168 20.6 V 0.70 -0.28 c 691 0.80 Yes Yes
2002XP40 O C H 2006-09-28.31361 1.000E-05 01:26:25.460 1.500E-01 0.500 F -0.184 -0.110 +01° 33' 14.10" 1.000E-01 0.500 F 0.510 -0.317 21.5 V 0.70 -0.06 c 691 0.69 Yes Yes
2006UQ17 O C 2006-09-28.33108 1.000E-05 01:29:17.430 1.500E-01 0.500 F -0.208 0.172 +02° 09' 36.70" 1.000E-01 0.500 F 0.515 -0.407 20.5 V 0.70 -0.38 c 691 0.88 Yes Yes
2002XP40 O C H 2006-09-28.33108 1.000E-05 01:26:24.160 1.500E-01 0.500 F -0.184 -0.031 +01° 33' 06.00" 1.000E-01 0.500 F 0.510 -0.189 21.5 V 0.70 -0.06 c 691 0.39 Yes Yes
2006UQ17 O C 2006-09-28.34855 1.000E-05 01:29:17.080 1.500E-01 0.500 F -0.208 -0.141 +02° 09' 30.40" 1.000E-01 0.500 F 0.515 -0.131 20.8 V 0.70 -0.07 c 691 0.39 Yes Yes
2002XP40 O C H 2006-09-28.34855 1.000E-05 01:26:22.930 1.500E-01 0.500 F -0.184 1.119 +01° 32' 58.20" 1.000E-01 0.500 F 0.510 0.243 21.5 V 0.70 -0.06 c 691 2.39 Yes Yes
1999SK10 O C 2006-09-28.41845 1.000E-05 01:49:56.450 1.500E-01 0.500 F 0.052 0.089 +13° 09' 51.50" 1.000E-01 0.500 F 0.350 -0.074 20.0 V 0.70 0.12 c 691 0.24 Yes Yes
2000TQ64 O C 2006-09-28.43680 1.000E-05 01:48:17.040 1.500E-01 0.500 F 0.010 0.574 +10° 48' 11.90" 1.000E-01 0.500 F 0.296 -0.178 21.6 V 0.70 0.25 c 691 1.21 Yes Yes
1999SK10 O C 2006-09-28.43933 1.000E-05 01:49:56.360 1.500E-01 0.500 F 0.052 0.145 +13° 09' 37.50" 1.000E-01 0.500 F 0.350 -0.179 20.0 V 0.70 0.12 c 691 0.47 Yes Yes
2000TQ64 O C 2006-09-28.45424 1.000E-05 01:48:15.770 1.500E-01 0.500 F 0.010 0.159 +10° 48' 09.10" 1.000E-01 0.500 F 0.296 0.134 21.4 V 0.70 0.05 c 691 0.42 Yes Yes
1999SK10 O C 2006-09-28.45677 1.000E-05 01:49:56.280 1.500E-01 0.500 F 0.052 0.046 +13° 09' 25.90" 1.000E-01 0.500 F 0.350 -0.119 20.0 V 0.70 0.12 c 691 0.26 Yes Yes
2000TQ64 O C 2006-09-28.47297 1.000E-05 01:48:14.410 1.500E-01 0.500 F 0.010 -0.261 +10° 48' 05.60" 1.000E-01 0.500 F 0.296 -0.011 21.7 V 0.70 0.35 c 691 0.53 Yes Yes
2003HM16 O C 2006-09-29.34010 1.000E-05 01:28:20.160 1.500E-01 0.500 F -0.377 0.244 +09° 46' 46.90" 1.000E-01 0.500 F 0.132 0.147 c 691 0.57 Yes No
2003HM16 O C 2006-09-29.35735 1.000E-05 01:28:18.620 1.500E-01 0.500 F -0.377 0.231 +09° 46' 20.70" 1.000E-01 0.500 F 0.132 -0.045 c 691 0.47 Yes No
2003HM16 O C 2006-09-29.37466 1.000E-05 01:28:17.050 1.500E-01 0.500 F -0.377 -0.149 +09° 45' 54.60" 1.000E-01 0.500 F 0.132 -0.033 c 691 0.31 Yes No
2006OU10 O C 2006-09-30.10911 1.000E-05 22:06:30.420 1.500E-01 0.500 F 0.068 0.068 +03° 50' 00.20" 1.000E-01 0.500 F 0.462 -0.332 20.7 V 0.70 -0.46 c 691 0.68 Yes Yes
2002TC9 O C H 2006-09-30.10911 1.000E-05 22:02:00.840 1.500E-01 0.500 F 0.000 -0.009 +02° 48' 09.90" 1.000E-01 0.500 F 0.426 -0.128 18.7 V 0.70 0.56 c 691 0.26 Yes Yes
2006OU10 O C 2006-09-30.12759 1.000E-05 22:06:28.870 1.500E-01 0.500 F 0.068 -0.171 +03° 50' 01.80" 1.000E-01 0.500 F 0.462 -0.022 21.0 V 0.70 -0.16 c 691 0.35 Yes Yes
2006OU10 O C 2006-09-30.14608 1.000E-05 22:06:27.350 1.500E-01 0.500 F 0.068 0.075 +03° 50' 02.90" 1.000E-01 0.500 F 0.462 -0.208 21.0 V 0.70 -0.16 c 691 0.45 Yes Yes
2006SU217 O C 2006-09-30.22468 1.000E-05 00:25:20.730 1.500E-01 0.500 F -0.193 0.073 +07° 21' 20.00" 1.000E-01 0.500 F 0.486 -0.054 20.7 V 0.70 0.02 c 691 0.19 Yes Yes
2006SU217 O C 2006-09-30.24198 1.000E-05 00:25:16.500 1.500E-01 0.500 F -0.193 -0.283 +07° 20' 18.10" 1.000E-01 0.500 F 0.486 -0.473 20.8 V 0.70 0.12 c 691 1.18 Yes Yes
2006SU217 O C 2006-09-30.25929 1.000E-05 00:25:12.330 1.500E-01 0.500 F -0.193 0.612 +07° 19' 17.40" 1.000E-01 0.500 F 0.486 0.416 20.5 V 0.70 -0.18 c 691 1.57 Yes Yes
2006SP134 O C H 2006-09-30.27324 1.000E-05 00:39:08.740 1.500E-01 0.500 F -0.062 0.227 +01° 10' 17.90" 1.000E-01 0.500 F 0.409 -0.322 21.0 V 0.70 0.01 c 691 0.79 Yes Yes
2006SP134 O C H 2006-09-30.28315 1.000E-05 00:39:08.000 1.500E-01 0.500 F -0.062 0.879 +01° 10' 14.30" 1.000E-01 0.500 F 0.409 -0.419 21.2 V 0.70 0.21 c 691 1.95 Yes Yes
2006SP134 O C H 2006-09-30.29305 1.000E-05 00:39:07.170 1.500E-01 0.500 F -0.062 0.172 +01° 10' 11.40" 1.000E-01 0.500 F 0.409 0.180 20.9 V 0.70 -0.09 c 691 0.50 Yes Yes
2006SP198 O C 2006-09-30.31292 1.000E-05 01:02:33.560 1.500E-01 0.500 F -0.158 -0.058 +07° 47' 35.60" 1.000E-01 0.500 F 0.406 0.089 21.6 V 0.70 0.39 c 691 0.22 Yes Yes
2006SP198 O C 2006-09-30.33027 1.000E-05 01:02:34.030 1.500E-01 0.500 F -0.158 -0.041 +07° 47' 21.80" 1.000E-01 0.500 F 0.406 0.064 21.3 V 0.70 0.09 c 691 0.15 Yes Yes
2006SP198 O C 2006-09-30.34755 1.000E-05 01:02:34.430 1.500E-01 0.500 F -0.158 -1.036 +07° 47' 08.10" 1.000E-01 0.500 F 0.406 0.120 21.6 V 0.70 0.39 c 691 2.13 Yes Yes
Seleucus O C 2006-09-30.36895 1.000E-05 01:31:41.320 1.500E-01 0.500 F -0.187 0.042 +12° 43' 13.40" 1.000E-01 0.500 F 0.424 -0.489 19.9 V 0.70 0.34 c 691 0.98 Yes Yes
Seleucus O C 2006-09-30.38631 1.000E-05 01:31:40.250 1.500E-01 0.500 F -0.187 -0.170 +12° 43' 06.60" 1.000E-01 0.500 F 0.424 -0.342 19.9 V 0.70 0.34 c 691 0.76 Yes Yes
Seleucus O C 2006-09-30.40374 1.000E-05 01:31:39.200 1.500E-01 0.500 F -0.187 -0.034 +12° 42' 59.70" 1.000E-01 0.500 F 0.424 -0.254 19.9 V 0.70 0.34 c 691 0.51 Yes Yes
2006SR19 O C H 2006-09-30.43079 1.000E-05 02:09:17.250 1.500E-01 0.500 F -0.053 0.208 +18° 13' 11.90" 1.000E-01 0.500 F 0.434 -0.297 21.0 V 0.70 0.17 c 691 0.74 Yes Yes
1998FF2 O C 2006-09-30.43328 1.000E-05 02:05:16.720 1.500E-01 0.500 F -0.042 0.008 +19° 31' 42.30" 1.000E-01 0.500 F 0.505 -0.283 19.9 V 0.70 0.21 c 691 0.57 Yes Yes
1998FF2 O C 2006-09-30.45409 1.000E-05 02:05:14.280 1.500E-01 0.500 F -0.042 0.064 +19° 31' 49.40" 1.000E-01 0.500 F 0.505 -0.137 20.0 V 0.70 0.31 c 691 0.30 Yes Yes
2006SR19 O C H 2006-09-30.46896 1.000E-05 02:09:21.630 1.500E-01 0.500 F -0.048 -0.511 +18° 14' 07.30" 1.000E-01 0.500 F 0.419 0.623 20.5 V 0.70 -0.32 c 691 1.63 Yes Yes
1998FF2 O C 2006-09-30.47145 1.000E-05 02:05:12.250 1.500E-01 0.500 F -0.042 0.122 +19° 31' 55.10" 1.000E-01 0.500 F 0.505 -0.184 19.9 V 0.70 0.21 c 691 0.44 Yes Yes
2006SR134 O C 2006-10-01.37184 1.000E-05 01:28:15.010 1.500E-01 0.500 F -0.419 0.286 +03° 58' 47.10" 1.000E-01 0.500 F 0.567 0.212 c 691 0.73 Yes No
2006SR134 O C 2006-10-01.38918 1.000E-05 01:28:13.380 1.500E-01 0.500 F -0.419 0.016 +03° 58' 50.80" 1.000E-01 0.500 F 0.567 -0.446 c 691 0.91 Yes No
2006SR134 O C 2006-10-01.40653 1.000E-05 01:28:11.770 1.500E-01 0.500 F -0.419 -0.061 +03° 58' 55.60" 1.000E-01 0.500 F 0.567 0.024 c 691 0.13 Yes No
2006UQ17 O C 2006-10-02.26325 1.000E-05 01:28:21.830 1.500E-01 0.500 F -0.209 -0.383 +01° 43' 05.30" 1.000E-01 0.500 F 0.515 0.133 c 691 0.81 Yes No
2006UQ17 O C 2006-10-02.28065 1.000E-05 01:28:21.330 1.500E-01 0.500 F -0.209 -0.520 +01° 42' 57.30" 1.000E-01 0.500 F 0.515 -0.381 c 691 1.29 Yes No
2006UQ17 O C 2006-10-02.29804 1.000E-05 01:28:20.860 1.500E-01 0.500 F -0.209 -0.090 +01° 42' 50.20" 1.000E-01 0.500 F 0.515 0.013 c 691 0.18 Yes No
1999SK10 O C 2006-10-02.37179 1.000E-05 01:49:46.100 1.500E-01 0.500 F 0.068 -0.165 +12° 21' 22.00" 1.000E-01 0.500 F 0.360 -0.189 c 691 0.50 Yes No
2006ST131 O C 2006-10-02.37665 1.000E-05 01:59:07.280 1.500E-01 0.500 F -0.207 -0.075 +12° 33' 49.70" 1.000E-01 0.500 F 0.426 -0.254 c 691 0.54 Yes No
1999SK10 O C 2006-10-02.39260 1.000E-05 01:49:45.830 1.500E-01 0.500 F 0.068 0.123 +12° 21' 05.00" 1.000E-01 0.500 F 0.360 -0.087 c 691 0.31 Yes No
2006ST131 O C 2006-10-02.39747 1.000E-05 01:59:07.770 1.500E-01 0.500 F -0.207 -0.150 +12° 31' 52.50" 1.000E-01 0.500 F 0.426 0.360 c 691 0.79 Yes No
1999SK10 O C 2006-10-02.40998 1.000E-05 01:49:45.580 1.500E-01 0.500 F 0.068 -0.032 +12° 20' 50.80" 1.000E-01 0.500 F 0.360 0.055 c 691 0.13 Yes No
2006ST131 O C 2006-10-02.41484 1.000E-05 01:59:08.190 1.500E-01 0.500 F -0.207 -0.106 +12° 30' 13.70" 1.000E-01 0.500 F 0.426 0.009 c 691 0.22 Yes No
2003HM16 O C 2006-10-03.37625 1.000E-05 01:22:29.340 1.500E-01 0.500 F -0.078 -0.150 +08° 05' 29.00" 1.000E-01 0.500 F 0.365 -0.268 c 691 0.62 Yes No
2003HM16 O C 2006-10-03.39356 1.000E-05 01:22:27.810 1.500E-01 0.500 F -0.078 0.131 +08° 05' 03.10" 1.000E-01 0.500 F 0.365 -0.175 c 691 0.44 Yes No
2003HM16 O C 2006-10-03.41086 1.000E-05 01:22:26.240 1.500E-01 0.500 F -0.078 -0.224 +08° 04' 37.00" 1.000E-01 0.500 F 0.365 -0.289 c 691 0.73 Yes No
Seleucus O C 2006-10-11.15129 1.000E-05 01:20:32.740 1.500E-01 0.500 F -0.047 0.111 +11° 25' 43.90" 1.000E-01 0.500 F 0.207 -0.254 c 691 0.55 Yes No
2002FD6 O C 2006-10-11.16616 1.000E-05 01:11:16.440 1.500E-01 0.500 F -0.030 0.275 +10° 44' 17.10" 1.000E-01 0.500 F 0.293 0.201 c 691 0.72 Yes No
Seleucus O C 2006-10-11.16869 1.000E-05 01:20:31.590 1.500E-01 0.500 F -0.047 -0.239 +11° 25' 36.10" 1.000E-01 0.500 F 0.207 -0.174 c 691 0.59 Yes No
2002FD6 O C 2006-10-11.18356 1.000E-05 01:11:12.160 1.500E-01 0.500 F -0.030 0.378 +10° 44' 37.70" 1.000E-01 0.500 F 0.293 0.221 c 691 0.93 Yes No
Seleucus O C 2006-10-11.18609 1.000E-05 01:20:30.490 1.500E-01 0.500 F -0.047 0.182 +11° 25' 28.30" 1.000E-01 0.500 F 0.207 -0.088 c 691 0.40 Yes No
2002FD6 O C 2006-10-11.20096 1.000E-05 01:11:07.830 1.500E-01 0.500 F -0.030 -0.007 +10° 44' 58.20" 1.000E-01 0.500 F 0.293 0.226 c 691 0.46 Yes No
1999SK10 O C 2006-10-11.21487 1.000E-05 01:47:19.770 1.500E-01 0.500 F -0.011 -0.098 +09° 51' 06.20" 1.000E-01 0.500 F 0.174 0.040 c 691 0.20 Yes No
2006RA55 O C 2006-10-11.21487 1.000E-05 01:41:13.880 1.500E-01 0.500 F 0.013 0.116 +10° 20' 28.80" 1.000E-01 0.500 F 0.171 0.036 c 691 0.25 Yes No
1999SK10 O C 2006-10-11.22481 1.000E-05 01:47:19.450 1.500E-01 0.500 F -0.011 -0.023 +09° 50' 54.00" 1.000E-01 0.500 F 0.174 -0.025 c 691 0.06 Yes No
2006RA55 O C 2006-10-11.22481 1.000E-05 01:41:13.580 1.500E-01 0.500 F 0.013 0.148 +10° 20' 29.60" 1.000E-01 0.500 F 0.171 -0.098 c 691 0.36 Yes No
1999SK10 O C 2006-10-11.23475 1.000E-05 01:47:19.120 1.500E-01 0.500 F -0.011 -0.046 +09° 50' 41.90" 1.000E-01 0.500 F 0.174 0.026 c 691 0.10 Yes No
2006RA55 O C 2006-10-11.23475 1.000E-05 01:41:13.260 1.500E-01 0.500 F 0.013 -0.077 +10° 20' 30.60" 1.000E-01 0.500 F 0.171 -0.022 c 691 0.16 Yes No
2006SX217 O C H 2006-10-11.35802 1.000E-05 02:56:12.790 1.500E-01 0.500 F 0.004 0.305 +15° 38' 16.50" 1.000E-01 0.500 F 0.389 -0.070 20.4 V 0.70 -0.49 c 691 0.62 Yes Yes
2006SX217 O C H 2006-10-11.37542 1.000E-05 02:56:10.930 1.500E-01 0.500 F 0.004 0.318 +15° 38' 23.50" 1.000E-01 0.500 F 0.389 -0.474 c 691 1.14 Yes No
2006TK O C H 2006-10-11.37785 1.000E-05 03:04:10.960 1.500E-01 0.500 F -0.064 -0.255 +14° 59' 14.70" 1.000E-01 0.500 F 0.507 -0.608 20.9 V 0.70 -0.42 c 691 1.34 Yes Yes
2006SX217 O C H 2006-10-11.39281 1.000E-05 02:56:09.060 1.500E-01 0.500 F 0.004 0.187 +15° 38' 31.20" 1.000E-01 0.500 F 0.389 -0.146 c 691 0.47 Yes No
2006TK O C H 2006-10-11.39525 1.000E-05 03:04:09.390 1.500E-01 0.500 F -0.064 1.926 +14° 59' 15.00" 1.000E-01 0.500 F 0.507 0.190 c 691 3.80 No No
2006SQ78 O C t 2006-10-12.32402 1.000E-05 02:57:15.590 1.500E-01 0.500 F -0.042 0.711 +17° 20' 47.50" 1.000E-01 0.500 F 0.325 -0.477 19.3 V 0.70 0.33 c 691 1.73 Yes Yes
2006SQ78 O C t 2006-10-12.34136 1.000E-05 02:57:13.050 1.500E-01 0.500 F -0.042 0.944 +17° 19' 43.00" 1.000E-01 0.500 F 0.325 -0.578 19.5 V 0.70 0.53 c 691 2.23 Yes Yes
2006SQ78 O C t 2006-10-12.35922 1.000E-05 02:57:10.390 1.500E-01 0.500 F -0.042 0.605 +17° 18' 36.50" 1.000E-01 0.500 F 0.325 -0.679 19.5 V 0.70 0.53 c 691 1.83 Yes Yes
2006RG2 O C 2006-10-12.37898 1.000E-05 03:24:19.010 1.500E-01 0.500 F 0.047 0.012 +16° 28' 50.50" 1.000E-01 0.500 F 0.303 -0.193 c 691 0.39 Yes No
2006RG2 O C 2006-10-12.39640 1.000E-05 03:24:20.730 1.500E-01 0.500 F 0.047 0.041 +16° 29' 17.20" 1.000E-01 0.500 F 0.303 -0.180 c 691 0.37 Yes No
2006RG2 O C 2006-10-12.41382 1.000E-05 03:24:22.450 1.500E-01 0.500 F 0.047 0.057 +16° 29' 43.80" 1.000E-01 0.500 F 0.303 -0.224 c 691 0.46 Yes No
1988XB O C 2006-10-12.48666 1.000E-05 09:30:32.890 1.500E-01 0.500 F 0.246 -0.664 +15° 55' 50.40" 1.000E-01 0.500 F 0.343 0.279 c 691 1.44 Yes No
1988XB O C 2006-10-12.49912 1.000E-05 09:30:34.570 1.500E-01 0.500 F 0.246 -0.264 +15° 55' 43.30" 1.000E-01 0.500 F 0.343 -0.509 c 691 1.15 Yes No
1988XB O C 2006-10-12.51158 1.000E-05 09:30:36.240 1.500E-01 0.500 F 0.246 0.021 +15° 55' 37.00" 1.000E-01 0.500 F 0.343 -0.491 c 691 0.98 Yes No
2006SR19 O C 2006-10-13.22921 1.000E-05 02:34:36.450 1.500E-01 0.500 F -0.094 0.255 +23° 00' 33.80" 1.000E-01 0.500 F 0.376 -0.061 c 691 0.54 Yes No
2006SV134 O C 2006-10-13.22921 1.000E-05 02:38:24.980 1.500E-01 0.500 F -0.107 -0.029 +22° 31' 44.00" 1.000E-01 0.500 F 0.340 -0.201 c 691 0.41 Yes No
2005CK38 O C H 2006-10-13.23909 1.000E-05 02:32:41.380 1.500E-01 0.500 F -0.139 1.492 +20° 35' 25.40" 1.000E-01 0.500 F 0.514 0.431 c 691 3.12 Yes No
2006SR19 O C 2006-10-13.24654 1.000E-05 02:34:38.170 1.500E-01 0.500 F -0.094 0.377 +23° 00' 55.70" 1.000E-01 0.500 F 0.376 0.153 c 691 0.84 Yes No
2006SV134 O C 2006-10-13.24654 1.000E-05 02:38:23.240 1.500E-01 0.500 F -0.107 0.002 +22° 31' 13.90" 1.000E-01 0.500 F 0.340 -0.397 c 691 0.80 Yes No
2005CK38 O C H 2006-10-13.25650 1.000E-05 02:32:40.210 1.500E-01 0.500 F -0.139 0.426 +20° 35' 21.90" 1.000E-01 0.500 F 0.514 -0.877 c 691 1.95 Yes No
2006SR19 O C 2006-10-13.26396 1.000E-05 02:34:39.860 1.500E-01 0.500 F -0.094 0.186 +23° 01' 17.20" 1.000E-01 0.500 F 0.376 -0.037 c 691 0.39 Yes No
2006SV134 O C 2006-10-13.26396 1.000E-05 02:38:21.470 1.500E-01 0.500 F -0.107 -0.175 +22° 30' 44.00" 1.000E-01 0.500 F 0.340 -0.198 c 691 0.53 Yes No
2005CK38 O C H 2006-10-13.27390 1.000E-05 02:32:39.180 1.500E-01 0.500 F -0.139 1.346 +20° 35' 19.70" 1.000E-01 0.500 F 0.514 -0.872 21.1 V 0.70 -0.63 c 691 3.20 No Yes
1999FP59 O C 2006-10-13.34829 1.000E-05 03:35:27.250 1.500E-01 0.500 F -0.063 -0.077 +20° 23' 12.90" 1.000E-01 0.500 F 0.307 0.038 c 691 0.17 Yes No
1999FP59 O C 2006-10-13.36567 1.000E-05 03:35:26.260 1.500E-01 0.500 F -0.063 -0.087 +20° 23' 13.40" 1.000E-01 0.500 F 0.307 -0.089 c 691 0.25 Yes No
1999FP59 O C 2006-10-13.43741 1.000E-05 03:35:22.160 1.500E-01 0.500 F -0.063 0.014 +20° 23' 15.30" 1.000E-01 0.500 F 0.307 -0.108 c 691 0.22 Yes No
2000TQ64 O C H 2006-10-15.13564 1.000E-05 01:27:27.590 1.500E-01 0.500 F -0.377 1.649 +09° 47' 42.30" 1.000E-01 0.500 F 0.132 -0.941 21.2 V 0.70 0.27 c 691 3.78 No Yes
2000TQ64 O C H 2006-10-15.15305 1.000E-05 01:27:26.120 1.500E-01 0.500 F -0.377 -0.069 +09° 47' 39.40" 1.000E-01 0.500 F 0.132 0.318 20.8 V 0.70 -0.13 c 691 0.65 Yes Yes
2000TQ64 O C H 2006-10-15.17045 1.000E-05 01:27:24.700 1.500E-01 0.500 F -0.377 -1.011 +09° 47' 35.30" 1.000E-01 0.500 F 0.132 0.380 21.5 V 0.70 0.57 c 691 2.17 Yes Yes
2006SX217 O C H 2006-10-15.33041 1.000E-05 02:48:57.700 1.500E-01 0.500 F -0.126 1.125 +16° 05' 42.20" 1.000E-01 0.500 F 0.543 -0.262 c 691 2.31 Yes No
2006TK O C H 2006-10-15.33285 1.000E-05 02:57:44.680 1.500E-01 0.500 F -0.031 0.862 +14° 56' 15.60" 1.000E-01 0.500 F 0.624 0.429 21.5 V 0.70 0.23 c 691 1.97 Yes Yes
2006SX217 O C H 2006-10-15.34782 1.000E-05 02:48:55.570 1.500E-01 0.500 F -0.126 0.339 +16° 05' 49.20" 1.000E-01 0.500 F 0.543 -0.311 21.0 V 0.70 0.26 c 691 0.92 Yes Yes
2006TK O C H 2006-10-15.35026 1.000E-05 02:57:42.830 1.500E-01 0.500 F -0.031 0.382 +14° 56' 14.00" 1.000E-01 0.500 F 0.624 -0.128 c 691 0.82 Yes No
2006SQ78 O C t 2006-10-15.36326 1.000E-05 02:49:58.330 1.500E-01 0.500 F -0.076 0.336 +14° 09' 20.10" 1.000E-01 0.500 F 0.526 -0.679 19.7 V 0.70 0.86 c 691 1.53 Yes Yes
2006SX217 O C H 2006-10-15.36579 1.000E-05 02:48:53.400 1.500E-01 0.500 F -0.126 -0.040 +16° 05' 56.20" 1.000E-01 0.500 F 0.543 -0.555 21.4 V 0.70 0.66 c 691 1.12 Yes Yes
2006TK O C H 2006-10-15.36823 1.000E-05 02:57:40.970 1.500E-01 0.500 F -0.031 0.622 +14° 56' 11.80" 1.000E-01 0.500 F 0.624 -1.219 c 691 2.80 Yes No
2006SQ78 O C t 2006-10-15.38061 1.000E-05 02:49:55.680 1.500E-01 0.500 F -0.076 0.365 +14° 08' 13.30" 1.000E-01 0.500 F 0.526 -1.039 19.4 V 0.70 0.56 c 691 2.22 Yes Yes
2006UF O C 2006-10-16.23566 1.000E-05 02:06:16.870 1.500E-01 0.500 F -0.290 -0.351 +15° 01' 17.50" 1.000E-01 0.500 F 0.463 0.105 19.7 V 0.70 -0.26 c 691 0.75 Yes Yes
2006UF O C 2006-10-16.25312 1.000E-05 02:06:20.100 1.500E-01 0.500 F -0.290 -0.143 +15° 00' 54.60" 1.000E-01 0.500 F 0.463 -0.185 19.8 V 0.70 -0.16 c 691 0.48 Yes Yes
2006UF O C 2006-10-16.27042 1.000E-05 02:06:23.270 1.500E-01 0.500 F -0.290 -0.193 +15° 00' 32.10" 1.000E-01 0.500 F 0.463 -0.163 19.7 V 0.70 -0.26 c 691 0.52 Yes Yes
2003HN O C H 2006-10-16.29706 1.000E-05 02:27:02.410 1.500E-01 0.500 F -0.109 -0.167 +15° 38' 00.10" 1.000E-01 0.500 F 0.336 -1.350 c 691 2.73 Yes No
2006UJ O C 2006-10-16.30695 1.000E-05 02:36:03.650 1.500E-01 0.500 F 0.002 0.307 +14° 00' 52.20" 1.000E-01 0.500 F 0.537 -0.039 20.4 V 0.70 -0.64 c 691 0.69 Yes Yes
2003HN O C H 2006-10-16.31452 1.000E-05 02:27:00.720 1.500E-01 0.500 F -0.109 -0.921 +15° 37' 43.90" 1.000E-01 0.500 F 0.336 -1.065 21.8 V 0.70 0.13 c 691 2.88 Yes Yes
2006UJ O C 2006-10-16.32442 1.000E-05 02:36:06.640 1.500E-01 0.500 F 0.002 0.131 +14° 00' 25.10" 1.000E-01 0.500 F 0.537 -0.407 20.6 V 0.70 -0.44 c 691 0.94 Yes Yes
2003HN O C H 2006-10-16.33194 1.000E-05 02:26:59.170 1.500E-01 0.500 F -0.109 0.312 +15° 37' 28.20" 1.000E-01 0.500 F 0.336 -0.291 21.6 V 0.70 -0.07 c 691 0.87 Yes Yes

[1-200] [201-400] [401-600] [601-800] [801-1000] [1001-1200] [1201-1400] [1401-1600] [1601-1800] [1801-2000] [2001-2200] [2201-2400] [2401-2600] [2601-2800] [2801-3000] [3001-3200] [3201-3400] [3401-3600] [3601-3800] [3801-4000] [4001-4200] [4201-4400] [4401-4600] [4601-4800] [4801-5000] [5001-5200] [5201-5400] [5401-5600] [5601-5800] [5801-6000] [6001-6200] [6201-6400] [6401-6600] [6601-6800] [6801-7000] [7001-7200] [7201-7400] [7401-7600] [7601-7800] [7801-8000] [8001-8200] [8201-8400] [8401-8600] [8601-8800] [8801-9000] [9001-9200] [9201-9400] [9401-9600] [9601-9800] [9801-10000] [10001-10200] [10201-10400] [10401-10600] [10601-10800] [10801-11000] [11001-11200] [11201-11400] [11401-11600] [11601-11800] [11801-12000] [12001-12200] [12201-12400] [12401-12600] [12601-12800] [12801-13000] [13001-13200] [13201-13400] [13401-13600] [13601-13800] [13801-14000] [14001-14200] [14201-14400] [14401-14600] [14601-14800] [14801-15000] [15001-15200] [15201-15400] [15401-15600] [15601-15800] [15801-16000] [16001-16200] [16201-16400] [16401-16600] [16601-16800] [16801-17000] [17001-17200] [17201-17400] [17401-17600] [17601-17800] [17801-18000] [18001-18200] [18201-18400] [18401-18600] [18601-18800] [18801-19000] [19001-19200] [19201-19400] [19401-19600] [19601-19800] [19801-20000] [20001-20200] [20201-20400] [20401-20600] [20601-20800] [20801-21000] [21001-21200] [21201-21400] [21401-21600] [21601-21800] [21801-22000] [22001-22200] [22201-22400] [22401-22600] [22601-22800] [22801-23000] [23001-23200] [23201-23400] [23401-23600] [23601-23800] [23801-24000] [24001-24200] [24201-24400] [24401-24600] [24601-24800] [24801-25000] [25001-25200] [25201-25400] [25401-25600] [25601-25800] [25801-26000] [26001-26200] [26201-26400] [26401-26600] [26601-26800] [26801-27000] [27001-27200] [27201-27400] [27401-27600] [27601-27800] [27801-28000] [28001-28200] [28201-28400] [28401-28600] [28601-28800] [28801-29000] [29001-29200] [29201-29400] [29401-29600] [29601-29800] [29801-30000] [30001-30200] [30201-30400] [30401-30600] [30601-30800] [30801-31000] [31001-31200] [31201-31400] [31401-31600] [31601-31800] [31801-32000] [32001-32200] [32201-32400] [32401-32600] [32601-32800] [32801-33000] [33001-33200] [33201-33400] [33401-33600] [33601-33800] [33801-34000] [34001-34200] [34201-34400] [34401-34600] [34601-34800] [34801-35000] [35001-35200] [35201-35400] [35401-35600] [35601-35800] [35801-36000] [36001-36200] [36201-36400] [36401-36600] [36601-36800] [36801-37000] [37001-37200] [37201-37400] [37401-37600] [37601-37800] [37801-38000] [38001-38200] [38201-38400] [38401-38600] [38601-38800] [38801-39000] [39001-39200] [39201-39400] [39401-39600] [39601-39800] [39801-40000] [40001-40200] [40201-40400] [40401-40600] [40601-40800] [40801-41000] [41001-41200] [41201-41400] [41401-41600] [41601-41800] [41801-42000] [42001-42200] [42201-42400] [42401-42600] [42601-42800] [42801-43000] [43001-43200] [43201-43400] [43401-43600] [43601-43800] [43801-44000] [44001-44200] [44201-44400] [44401-44600] [44601-44800] [44801-45000] [45001-45200] [45201-45400] [45401-45600] [45601-45800] [45801-46000] [46001-46200] [46201-46400] [46401-46600] [46601-46800] [46801-47000] [47001-47200] [47201-47400] [47401-47600] [47601-47800] [47801-48000] [48001-48200] [48201-48400] [48401-48600] [48601-48800] [48801-49000] [49001-49200] [49201-49400] [49401-49600] [49601-49800] [49801-50000] [50001-50200] [50201-50388]